Time;durP1;ratioP1;P1;durP2;ratioP2;P2;SDS_P1;SDS_P2;PMS_P1;PMS_P2;Temp;Humidity;BMP_temperature;BMP_pressure;BME280_temperature;BME280_humidity;BME280_pressure;Samples;Min_cycle;Max_cycle;Signal;HPM_P1;HPM_P2
2023/11/26 00:00:35;;;;;;;26.30;15.75;;;2.90;99.90;;;;;;5104386;27;20036;-76
2023/11/26 00:03:03;;;;;;;26.65;16.17;;;2.90;99.90;;;;;;5067491;27;20486;-75
2023/11/26 00:05:30;;;;;;;21.65;11.50;;;2.80;99.90;;;;;;5068036;28;20396;-76
2023/11/26 00:07:56;;;;;;;17.10;8.80;;;2.80;99.90;;;;;;5090661;27;20038;-76
2023/11/26 00:10:23;;;;;;;12.43;6.90;;;2.80;99.90;;;;;;5113731;27;20506;-75
2023/11/26 00:12:49;;;;;;;11.35;6.18;;;2.80;99.90;;;;;;5083331;28;20508;-76
2023/11/26 00:15:15;;;;;;;10.40;4.72;;;2.80;99.90;;;;;;5100484;27;20438;-75
2023/11/26 00:17:42;;;;;;;9.95;4.25;;;2.80;99.90;;;;;;5104834;27;20035;-76
2023/11/26 00:20:09;;;;;;;12.68;3.85;;;2.80;99.90;;;;;;5078302;28;20043;-75
2023/11/26 00:22:36;;;;;;;9.60;2.60;;;2.80;99.90;;;;;;5093677;27;20036;-76
2023/11/26 00:25:02;;;;;;;8.00;3.42;;;2.70;99.90;;;;;;5073555;28;20035;-76
2023/11/26 00:27:28;;;;;;;8.43;2.65;;;2.70;99.90;;;;;;5065992;28;20058;-76
2023/11/26 00:29:55;;;;;;;10.75;3.03;;;2.70;99.90;;;;;;5066379;28;20027;-76
2023/11/26 00:32:21;;;;;;;5.50;2.72;;;2.70;99.90;;;;;;5065755;28;20521;-75
2023/11/26 00:34:48;;;;;;;11.48;3.17;;;2.70;99.90;;;;;;5066766;27;20032;-75
2023/11/26 00:37:14;;;;;;;12.48;2.85;;;2.60;99.90;;;;;;5081626;28;20044;-76
2023/11/26 00:39:40;;;;;;;6.75;2.67;;;2.60;99.90;;;;;;5079604;28;20417;-76
2023/11/26 00:42:07;;;;;;;7.32;2.67;;;2.60;99.90;;;;;;5083012;28;20501;-76
2023/11/26 00:44:35;;;;;;;5.57;2.63;;;2.60;99.90;;;;;;5082104;28;21257;-75
2023/11/26 00:47:01;;;;;;;7.35;2.60;;;2.60;99.90;;;;;;5114251;27;20040;-76
2023/11/26 00:49:28;;;;;;;10.43;2.40;;;2.60;99.90;;;;;;5079485;28;20043;-75
2023/11/26 00:51:54;;;;;;;8.85;2.90;;;2.50;99.90;;;;;;5061271;28;20040;-75
2023/11/26 00:54:20;;;;;;;10.32;3.10;;;2.50;99.90;;;;;;5082996;28;20595;-76
2023/11/26 00:56:47;;;;;;;7.25;2.40;;;2.50;99.90;;;;;;5079333;28;20044;-76
2023/11/26 00:59:13;;;;;;;10.52;3.28;;;2.50;99.90;;;;;;5069415;28;20035;-76
2023/11/26 01:01:39;;;;;;;8.30;4.13;;;2.40;99.90;;;;;;5062436;28;20046;-76
2023/11/26 01:04:06;;;;;;;8.27;3.53;;;2.40;99.90;;;;;;5083208;28;20028;-76
2023/11/26 01:06:35;;;;;;;7.80;3.38;;;2.40;99.90;;;;;;5079562;28;20032;-75
2023/11/26 01:09:03;;;;;;;8.50;3.15;;;2.40;99.90;;;;;;5061257;28;20044;-76
2023/11/26 01:11:30;;;;;;;8.05;3.38;;;2.30;99.90;;;;;;5064300;28;20403;-76
2023/11/26 01:13:56;;;;;;;9.18;3.28;;;2.30;99.90;;;;;;5069525;28;20035;-76
2023/11/26 01:16:22;;;;;;;7.85;3.25;;;2.30;99.90;;;;;;5082354;28;20043;-76
2023/11/26 01:18:49;;;;;;;6.57;3.28;;;2.30;99.90;;;;;;5051420;28;20039;-76
2023/11/26 01:21:15;;;;;;;9.52;4.15;;;2.20;99.90;;;;;;5078725;28;20044;-77
2023/11/26 01:23:41;;;;;;;8.38;3.63;;;2.20;99.90;;;;;;5114744;27;20040;-77
2023/11/26 01:26:10;;;;;;;8.07;3.42;;;2.20;99.90;;;;;;5070451;28;20043;-77
2023/11/26 01:28:36;;;;;;;9.07;3.90;;;2.20;99.90;;;;;;5084835;28;20343;-76
2023/11/26 01:31:03;;;;;;;8.73;3.67;;;2.20;99.90;;;;;;5071502;28;20152;-76
2023/11/26 01:33:29;;;;;;;12.43;4.75;;;2.20;99.90;;;;;;5068930;28;20030;-76
2023/11/26 01:35:55;;;;;;;9.27;3.88;;;2.20;99.90;;;;;;5087865;28;20518;-76
2023/11/26 01:38:22;;;;;;;10.43;4.00;;;2.30;99.90;;;;;;5084404;28;20032;-77
2023/11/26 01:40:48;;;;;;;7.90;4.20;;;2.30;99.90;;;;;;5066596;28;20050;-75
2023/11/26 01:43:14;;;;;;;15.02;4.80;;;2.30;99.90;;;;;;5082193;28;20256;-75
2023/11/26 01:45:41;;;;;;;10.65;3.35;;;2.30;99.90;;;;;;5098041;27;20036;-74
2023/11/26 01:48:07;;;;;;;9.57;3.93;;;2.20;99.90;;;;;;5084262;27;20020;-75
2023/11/26 01:50:33;;;;;;;8.30;3.80;;;2.30;99.90;;;;;;5064256;27;20031;-76
2023/11/26 01:53:00;;;;;;;8.93;2.90;;;2.30;99.90;;;;;;5084066;27;20031;-75
2023/11/26 01:55:26;;;;;;;10.90;3.67;;;2.20;99.90;;;;;;5086333;27;20031;-76
2023/11/26 01:57:53;;;;;;;14.38;3.90;;;2.20;99.90;;;;;;5098832;27;20040;-75
2023/11/26 02:00:21;;;;;;;8.45;3.63;;;2.20;99.90;;;;;;5078282;28;20036;-76
2023/11/26 02:02:48;;;;;;;10.40;4.00;;;2.20;99.90;;;;;;5071111;27;20039;-75
2023/11/26 02:05:14;;;;;;;8.43;3.72;;;2.20;99.90;;;;;;5084056;27;20036;-75
2023/11/26 02:07:41;;;;;;;11.40;3.25;;;2.10;99.90;;;;;;5093153;27;20049;-77
2023/11/26 02:10:08;;;;;;;9.90;4.40;;;2.10;99.90;;;;;;5084340;28;20047;-75
2023/11/26 02:12:35;;;;;;;15.15;4.13;;;2.10;99.90;;;;;;5098417;27;20039;-76
2023/11/26 02:15:03;;;;;;;9.25;3.25;;;2.10;99.90;;;;;;5101729;27;20046;-75
2023/11/26 02:17:31;;;;;;;9.73;3.00;;;2.10;99.90;;;;;;5086668;27;20027;-77
2023/11/26 02:20:04;;;;;;;8.93;3.20;;;2.10;99.90;;;;;;5053084;27;20267;-76
2023/11/26 02:22:34;;;;;;;8.70;2.83;;;2.00;99.90;;;;;;5071722;28;20051;-76
2023/11/26 02:25:00;;;;;;;14.45;3.28;;;2.00;99.90;;;;;;5075448;27;20035;-76
2023/11/26 02:27:29;;;;;;;11.05;2.78;;;2.00;99.90;;;;;;5089819;27;20042;-76
2023/11/26 02:29:56;;;;;;;14.33;2.73;;;1.90;99.90;;;;;;5085106;27;20028;-77
2023/11/26 02:32:22;;;;;;;6.25;2.20;;;1.90;99.90;;;;;;5072700;28;20038;-76
2023/11/26 02:34:48;;;;;;;12.40;2.63;;;1.90;99.90;;;;;;5083176;28;20489;-75
2023/11/26 02:37:15;;;;;;;6.50;2.50;;;1.80;99.90;;;;;;5069641;27;20027;-76
2023/11/26 02:39:41;;;;;;;9.38;2.72;;;1.80;99.90;;;;;;5068438;27;20044;-76
2023/11/26 02:42:07;;;;;;;14.33;3.43;;;1.80;99.90;;;;;;5082231;27;20050;-76
2023/11/26 02:44:34;;;;;;;9.10;3.05;;;1.80;99.90;;;;;;5083589;27;20051;-75
2023/11/26 02:47:01;;;;;;;10.43;1.98;;;1.70;99.90;;;;;;5066432;27;20553;-76
2023/11/26 02:49:27;;;;;;;7.30;2.47;;;1.80;99.90;;;;;;5082828;27;20410;-76
2023/11/26 02:51:54;;;;;;;9.07;2.07;;;1.70;99.90;;;;;;5077336;28;20054;-77
2023/11/26 02:54:21;;;;;;;9.23;2.30;;;1.70;99.90;;;;;;5100116;27;20054;-75
2023/11/26 02:56:47;;;;;;;7.65;2.83;;;1.70;99.90;;;;;;5099102;27;20047;-76
2023/11/26 02:59:15;;;;;;;7.47;2.40;;;1.70;99.90;;;;;;5085260;27;20055;-75
2023/11/26 03:01:42;;;;;;;8.90;2.60;;;1.60;99.90;;;;;;5081724;28;20039;-76
2023/11/26 03:04:09;;;;;;;14.90;3.20;;;1.60;99.90;;;;;;5100223;27;20019;-76
2023/11/26 03:06:36;;;;;;;11.50;2.78;;;1.60;99.90;;;;;;5081927;27;20600;-76
2023/11/26 03:09:35;;;;;;;11.73;3.83;;;1.60;99.90;;;;;;5049951;28;20035;-76
2023/11/26 03:14:44;;;;;;;12.03;3.00;;;1.50;99.90;;;;;;5072141;27;20047;-76
2023/11/26 03:17:13;;;;;;;9.17;3.57;;;1.50;99.90;;;;;;5083835;27;20039;-76
2023/11/26 03:19:41;;;;;;;12.40;3.57;;;1.50;99.90;;;;;;5088522;27;20414;-76
2023/11/26 03:22:09;;;;;;;7.67;3.60;;;1.50;99.90;;;;;;5074340;27;20057;-76
2023/11/26 03:24:36;;;;;;;9.07;3.00;;;1.50;99.90;;;;;;5073248;27;20043;-76
2023/11/26 03:27:03;;;;;;;7.10;4.23;;;1.50;99.90;;;;;;5086625;27;20035;-76
2023/11/26 03:29:29;;;;;;;13.82;3.63;;;1.50;99.90;;;;;;5069492;28;20032;-77
2023/11/26 03:31:56;;;;;;;12.70;3.90;;;1.50;99.90;;;;;;5067236;28;20295;-76
2023/11/26 03:34:28;;;;;;;5.27;3.27;;;1.40;99.90;;;;;;5082418;27;20051;-77
2023/11/26 03:36:54;;;;;;;12.57;3.97;;;1.50;99.90;;;;;;5067088;27;20044;-76
2023/11/26 03:39:20;;;;;;;7.43;4.13;;;1.50;99.90;;;;;;5065633;27;20040;-76
2023/11/26 03:41:48;;;;;;;8.65;3.45;;;1.60;99.90;;;;;;5080256;27;20047;-76
2023/11/26 03:44:14;;;;;;;12.63;4.17;;;1.60;99.90;;;;;;5081313;28;20415;-77
2023/11/26 03:46:42;;;;;;;14.03;5.60;;;1.60;99.90;;;;;;5081431;27;20683;-76
2023/11/26 03:49:09;;;;;;;12.03;5.50;;;1.60;99.90;;;;;;5079852;27;20043;-77
2023/11/26 03:51:35;;;;;;;7.70;4.45;;;1.60;99.90;;;;;;5052743;27;20502;-77
2023/11/26 03:54:01;;;;;;;13.57;6.67;;;1.60;99.90;;;;;;5049880;28;20043;-77
2023/11/26 03:56:27;;;;;;;17.33;9.63;;;1.60;99.90;;;;;;5065419;28;20043;-76
2023/11/26 03:58:54;;;;;;;17.60;7.47;;;1.60;99.90;;;;;;5087341;27;20595;-76
2023/11/26 04:01:20;;;;;;;12.73;7.18;;;1.60;99.90;;;;;;5084241;27;20024;-76
2023/11/26 04:03:46;;;;;;;17.03;7.27;;;1.60;99.90;;;;;;5070987;28;20031;-76
2023/11/26 04:06:13;;;;;;;14.43;7.63;;;1.60;99.90;;;;;;5088763;27;20035;-77
2023/11/26 04:08:39;;;;;;;12.03;5.67;;;1.60;99.90;;;;;;5087182;27;20765;-77
2023/11/26 04:11:05;;;;;;;16.63;7.00;;;1.60;99.90;;;;;;5069546;28;20043;-77
2023/11/26 04:13:32;;;;;;;11.43;6.17;;;1.60;99.90;;;;;;5100685;27;20045;-77
2023/11/26 04:15:58;;;;;;;11.43;5.88;;;1.50;99.90;;;;;;5100855;27;20073;-76
2023/11/26 04:18:27;;;;;;;12.93;5.83;;;1.50;99.90;;;;;;5099780;27;20504;-77
2023/11/26 04:20:54;;;;;;;13.37;6.67;;;1.50;99.90;;;;;;5061285;28;20027;-78
2023/11/26 04:23:21;;;;;;;11.30;5.50;;;1.50;99.90;;;;;;5069698;27;20035;-77
2023/11/26 04:25:48;;;;;;;16.15;6.63;;;1.50;99.90;;;;;;5077404;28;20035;-78
2023/11/26 04:28:15;;;;;;;16.03;7.00;;;1.50;99.90;;;;;;5077371;27;20051;-77
2023/11/26 04:30:41;;;;;;;13.67;5.50;;;1.50;99.90;;;;;;5080248;27;20054;-76
2023/11/26 04:33:08;;;;;;;13.70;7.07;;;1.50;99.90;;;;;;5085008;28;20057;-77
2023/11/26 04:35:34;;;;;;;14.03;6.23;;;1.50;99.90;;;;;;5060808;28;20039;-77
2023/11/26 04:38:01;;;;;;;12.83;7.00;;;1.50;99.90;;;;;;5066017;28;20557;-77
2023/11/26 04:40:27;;;;;;;10.63;6.37;;;1.50;99.90;;;;;;5081603;27;20600;-78
2023/11/26 04:42:54;;;;;;;12.10;6.40;;;1.50;99.90;;;;;;5070702;28;20036;-77
2023/11/26 04:45:20;;;;;;;17.90;6.88;;;1.50;99.90;;;;;;5081863;28;20031;-76
2023/11/26 04:47:47;;;;;;;15.87;7.97;;;1.50;99.90;;;;;;5101222;27;20044;-76
2023/11/26 04:50:15;;;;;;;19.00;7.80;;;1.50;99.90;;;;;;5067148;28;20050;-76
2023/11/26 04:52:41;;;;;;;13.93;7.47;;;1.50;99.90;;;;;;5081236;28;20047;-78
2023/11/26 04:55:08;;;;;;;15.50;8.23;;;1.50;99.90;;;;;;5082922;28;20043;-78
2023/11/26 04:57:35;;;;;;;21.07;8.27;;;1.50;99.90;;;;;;5078811;28;20032;-79
2023/11/26 05:00:02;;;;;;;17.93;8.20;;;1.50;99.90;;;;;;5097969;28;20035;-77
2023/11/26 05:02:32;;;;;;;16.53;8.27;;;1.50;99.90;;;;;;5078273;28;20039;-78
2023/11/26 05:04:58;;;;;;;13.63;7.17;;;1.50;99.90;;;;;;5112268;27;20101;-77
2023/11/26 05:07:25;;;;;;;12.63;7.40;;;1.50;99.90;;;;;;5077311;28;20039;-78
2023/11/26 05:09:51;;;;;;;13.90;7.47;;;1.60;99.90;;;;;;5093965;28;20040;-77
2023/11/26 05:12:17;;;;;;;13.87;7.67;;;1.60;99.90;;;;;;5081463;28;20031;-78
2023/11/26 05:14:44;;;;;;;13.20;6.97;;;1.60;99.90;;;;;;5064175;28;20047;-78
2023/11/26 05:17:10;;;;;;;16.10;8.00;;;1.70;99.90;;;;;;5081085;28;20028;-78
2023/11/26 05:19:36;;;;;;;13.53;6.63;;;1.70;99.90;;;;;;5121607;27;20043;-78
2023/11/26 05:22:03;;;;;;;13.60;7.50;;;1.70;99.90;;;;;;5103192;27;20031;-78
2023/11/26 05:24:29;;;;;;;15.47;8.33;;;1.70;99.90;;;;;;5090045;27;20378;-78
2023/11/26 05:26:55;;;;;;;20.10;8.23;;;1.70;99.90;;;;;;5106377;27;20401;-79
2023/11/26 05:29:22;;;;;;;17.87;9.53;;;1.80;99.90;;;;;;5108371;27;20039;-78
2023/11/26 05:31:49;;;;;;;16.58;8.07;;;1.80;99.90;;;;;;5069942;27;20050;-77
2023/11/26 05:34:15;;;;;;;16.67;8.07;;;1.80;99.90;;;;;;5085962;27;20035;-77
2023/11/26 05:36:41;;;;;;;23.80;15.02;;;1.80;99.90;;;;;;5086665;27;20550;-77
2023/11/26 05:39:08;;;;;;;33.10;18.65;;;1.80;99.90;;;;;;5067238;27;20113;-76
2023/11/26 05:41:34;;;;;;;25.63;18.38;;;1.80;99.90;;;;;;5083453;28;20054;-77
2023/11/26 05:44:01;;;;;;;29.93;18.33;;;1.80;99.90;;;;;;5051137;28;20040;-75
2023/11/26 05:46:27;;;;;;;29.92;20.15;;;1.90;99.90;;;;;;5071156;27;20391;-77
2023/11/26 05:48:53;;;;;;;27.70;20.52;;;1.90;99.90;;;;;;5064030;27;20039;-76
2023/11/26 05:51:21;;;;;;;23.07;15.70;;;1.90;99.90;;;;;;5084462;28;20039;-78
2023/11/26 05:53:48;;;;;;;24.60;14.17;;;2.00;99.90;;;;;;5084830;27;20121;-77
2023/11/26 05:56:14;;;;;;;16.77;11.13;;;2.10;99.90;;;;;;5084656;27;20027;-76
2023/11/26 05:58:40;;;;;;;20.50;11.47;;;2.10;99.90;;;;;;5050957;27;20557;-76
2023/11/26 06:01:07;;;;;;;22.88;12.15;;;2.20;99.90;;;;;;5068927;27;20035;-75
2023/11/26 06:03:33;;;;;;;24.48;13.00;;;2.20;99.90;;;;;;5085293;27;20520;-75
2023/11/26 06:05:59;;;;;;;20.87;10.57;;;2.30;99.90;;;;;;5072013;27;20039;-76
2023/11/26 06:08:26;;;;;;;19.88;10.15;;;2.30;99.90;;;;;;5067373;28;20040;-76
2023/11/26 06:10:52;;;;;;;14.52;10.23;;;2.40;99.90;;;;;;5087234;27;20032;-76
2023/11/26 06:13:18;;;;;;;13.52;8.68;;;2.40;99.90;;;;;;5086820;28;20482;-76
2023/11/26 06:15:45;;;;;;;20.47;11.23;;;2.50;99.90;;;;;;5101733;27;20060;-75
2023/11/26 06:18:11;;;;;;;14.82;9.55;;;2.50;99.90;;;;;;5087618;28;20039;-76
2023/11/26 06:20:38;;;;;;;13.90;8.43;;;2.50;99.90;;;;;;5053318;27;20154;-76
2023/11/26 06:23:04;;;;;;;14.85;7.70;;;2.60;99.90;;;;;;5103983;27;20036;-75
2023/11/26 06:25:31;;;;;;;19.65;9.20;;;2.60;99.90;;;;;;5099683;27;20057;-75
2023/11/26 06:27:58;;;;;;;16.63;7.65;;;2.60;99.90;;;;;;5083569;28;20050;-76
2023/11/26 06:30:24;;;;;;;19.92;8.80;;;2.60;99.90;;;;;;5065615;28;20043;-76
2023/11/26 06:32:50;;;;;;;12.57;6.90;;;2.70;99.90;;;;;;5068702;27;20035;-75
2023/11/26 06:35:17;;;;;;;17.70;7.45;;;2.70;99.90;;;;;;5082477;27;20043;-77
2023/11/26 06:37:43;;;;;;;15.93;7.22;;;2.80;99.90;;;;;;5066283;27;20263;-76
2023/11/26 06:40:12;;;;;;;13.10;7.05;;;2.80;99.90;;;;;;5079259;27;20630;-76
2023/11/26 06:42:40;;;;;;;11.45;6.20;;;2.80;99.90;;;;;;5053454;28;20040;-76
2023/11/26 06:45:08;;;;;;;12.32;5.80;;;2.90;99.90;;;;;;5084120;27;20034;-74
2023/11/26 06:47:35;;;;;;;13.50;6.60;;;3.00;99.90;;;;;;5087685;27;20046;-76
2023/11/26 06:50:02;;;;;;;13.02;5.88;;;3.00;99.90;;;;;;5113073;27;20040;-76
2023/11/26 06:52:30;;;;;;;14.07;5.90;;;3.10;99.90;;;;;;5087323;27;20537;-76
2023/11/26 06:54:57;;;;;;;10.45;5.32;;;3.10;99.90;;;;;;5053382;27;20048;-75
2023/11/26 06:57:23;;;;;;;12.55;6.47;;;3.10;99.90;;;;;;5071479;27;20054;-75
2023/11/26 06:59:49;;;;;;;16.15;6.25;;;3.10;99.90;;;;;;5109353;27;20028;-77
2023/11/26 07:02:16;;;;;;;15.00;6.28;;;3.20;99.90;;;;;;5089977;27;20032;-76
2023/11/26 07:04:42;;;;;;;17.17;6.97;;;3.20;99.90;;;;;;5107486;27;20501;-76
2023/11/26 07:07:10;;;;;;;13.55;5.78;;;3.20;99.90;;;;;;5101574;27;20400;-77
2023/11/26 07:09:36;;;;;;;13.55;5.05;;;3.30;99.90;;;;;;5100487;27;20406;-75
2023/11/26 07:12:03;;;;;;;14.80;5.63;;;3.30;99.90;;;;;;5083621;27;20058;-76
2023/11/26 07:14:29;;;;;;;11.70;4.55;;;3.30;99.90;;;;;;5051905;28;20510;-75
2023/11/26 07:16:55;;;;;;;11.65;4.15;;;3.40;99.90;;;;;;5064394;28;20039;-76
2023/11/26 07:19:21;;;;;;;8.23;3.58;;;3.40;99.90;;;;;;5070020;27;20038;-76
2023/11/26 07:21:48;;;;;;;8.63;4.13;;;3.50;99.90;;;;;;5081984;27;20035;-76
2023/11/26 07:24:14;;;;;;;18.00;5.70;;;3.50;99.90;;;;;;5068846;28;20390;-76
2023/11/26 07:26:41;;;;;;;13.48;4.60;;;3.50;99.90;;;;;;5064056;27;20867;-76
2023/11/26 07:29:08;;;;;;;14.80;5.55;;;3.50;99.90;;;;;;5066154;27;20044;-76
2023/11/26 07:31:34;;;;;;;12.00;5.43;;;3.60;99.90;;;;;;5062655;27;20513;-75
2023/11/26 07:34:01;;;;;;;11.10;6.35;;;3.60;99.90;;;;;;5080892;28;20044;-76
2023/11/26 07:36:27;;;;;;;11.80;5.72;;;3.60;99.90;;;;;;5078770;28;20286;-76
2023/11/26 07:38:58;;;;;;;10.82;5.55;;;3.60;99.90;;;;;;5065981;27;20054;-77
2023/11/26 07:41:25;;;;;;;13.55;6.20;;;3.60;99.90;;;;;;5079742;27;20320;-76
2023/11/26 07:43:54;;;;;;;14.02;5.72;;;3.70;99.90;;;;;;5084642;27;20039;-76
2023/11/26 07:46:21;;;;;;;12.23;6.05;;;3.70;99.90;;;;;;5080325;27;20028;-76
2023/11/26 07:48:49;;;;;;;10.65;5.20;;;3.70;99.90;;;;;;5065033;28;20050;-77
2023/11/26 07:51:15;;;;;;;11.82;4.97;;;3.70;99.90;;;;;;5082141;27;20498;-75
2023/11/26 07:53:42;;;;;;;11.45;4.75;;;3.70;99.90;;;;;;5084493;27;20383;-76
2023/11/26 07:56:10;;;;;;;14.98;6.70;;;3.80;99.90;;;;;;5118035;27;20197;-77
2023/11/26 07:58:36;;;;;;;13.80;5.50;;;3.80;99.90;;;;;;5067751;27;20039;-76
2023/11/26 08:01:04;;;;;;;11.07;4.47;;;3.80;99.90;;;;;;5084853;28;20024;-76
2023/11/26 08:03:31;;;;;;;15.60;4.57;;;3.90;99.90;;;;;;5065487;28;20043;-75
2023/11/26 08:06:00;;;;;;;9.00;4.60;;;4.00;99.90;;;;;;5068457;28;20031;-75
2023/11/26 08:08:34;;;;;;;14.73;3.45;;;4.00;99.90;;;;;;5064963;28;20049;-75
2023/11/26 08:11:03;;;;;;;12.38;4.28;;;4.10;99.90;;;;;;5077619;28;20386;-77
2023/11/26 08:13:32;;;;;;;14.73;3.63;;;4.20;99.90;;;;;;5072462;27;20116;-77
2023/11/26 08:15:58;;;;;;;12.68;4.05;;;4.30;99.90;;;;;;5085447;27;20508;-76
2023/11/26 08:18:24;;;;;;;13.27;3.33;;;4.40;99.90;;;;;;5083227;28;20027;-76
2023/11/26 08:20:53;;;;;;;10.27;3.47;;;4.50;99.90;;;;;;5049056;28;20043;-77
2023/11/26 08:23:19;;;;;;;7.45;3.55;;;4.50;99.90;;;;;;5099278;27;20032;-76
2023/11/26 08:25:47;;;;;;;6.50;2.47;;;4.60;99.90;;;;;;5095141;27;20032;-77
2023/11/26 08:28:14;;;;;;;13.50;3.97;;;4.60;99.90;;;;;;5095979;27;20449;-77
2023/11/26 08:30:45;;;;;;;13.93;3.85;;;4.70;99.90;;;;;;5053758;28;20053;-76
2023/11/26 08:33:12;;;;;;;9.75;3.28;;;4.70;99.90;;;;;;5068544;27;20505;-76
2023/11/26 08:35:41;;;;;;;10.07;3.53;;;4.70;99.90;;;;;;5051397;28;20399;-77
2023/11/26 08:38:08;;;;;;;11.75;3.90;;;4.80;99.90;;;;;;5080412;27;20040;-76
2023/11/26 08:40:38;;;;;;;12.50;3.80;;;4.80;99.90;;;;;;5079986;28;20051;-78
2023/11/26 08:43:10;;;;;;;11.23;3.42;;;4.90;99.90;;;;;;5071202;28;20036;-78
2023/11/26 08:45:40;;;;;;;10.73;3.67;;;4.90;99.90;;;;;;5076832;28;20043;-77
2023/11/26 08:48:07;;;;;;;17.48;4.00;;;5.00;99.90;;;;;;5053960;27;20035;-78
2023/11/26 08:50:34;;;;;;;7.28;3.60;;;5.10;99.90;;;;;;5060996;28;20035;-76
2023/11/26 08:53:05;;;;;;;11.25;3.70;;;5.10;99.90;;;;;;5082761;27;20032;-78
2023/11/26 08:55:32;;;;;;;9.20;3.38;;;5.10;99.90;;;;;;5069096;28;20032;-75
2023/11/26 08:57:59;;;;;;;10.18;3.58;;;5.20;99.90;;;;;;5083116;28;20508;-77
2023/11/26 09:00:29;;;;;;;9.27;3.83;;;5.30;99.90;;;;;;5082835;28;20044;-78
2023/11/26 09:02:55;;;;;;;9.68;4.10;;;5.30;99.90;;;;;;5086412;28;20058;-77
2023/11/26 09:05:23;;;;;;;14.75;4.50;;;5.40;99.90;;;;;;5083793;28;20391;-78
2023/11/26 09:07:50;;;;;;;7.53;3.53;;;5.40;99.90;;;;;;5070931;28;20049;-77
2023/11/26 09:10:17;;;;;;;9.80;3.33;;;5.50;99.90;;;;;;5085599;28;20517;-77
2023/11/26 09:12:43;;;;;;;9.93;3.10;;;5.60;99.90;;;;;;5095882;28;20063;-76
2023/11/26 09:15:11;;;;;;;13.52;4.85;;;5.60;99.90;;;;;;5080697;28;20039;-76
2023/11/26 09:17:41;;;;;;;14.38;3.83;;;5.60;99.90;;;;;;5081362;28;20482;-77
2023/11/26 09:20:15;;;;;;;8.57;4.22;;;5.70;99.90;;;;;;5067080;28;20047;-76
2023/11/26 09:22:42;;;;;;;10.65;4.07;;;5.70;99.90;;;;;;5086065;28;20046;-77
2023/11/26 09:25:10;;;;;;;15.57;4.68;;;5.70;99.90;;;;;;5094039;28;20577;-78
2023/11/26 09:27:37;;;;;;;13.05;4.10;;;5.80;99.90;;;;;;5065836;28;20063;-78
2023/11/26 09:30:06;;;;;;;14.88;5.30;;;5.80;99.90;;;;;;5076066;28;20051;-78
2023/11/26 09:32:33;;;;;;;14.73;5.10;;;5.80;99.90;;;;;;5081781;28;20031;-78
2023/11/26 09:34:59;;;;;;;16.35;5.68;;;5.90;99.90;;;;;;5093559;28;20379;-77
2023/11/26 09:37:25;;;;;;;12.88;7.13;;;5.90;99.90;;;;;;5064063;28;20027;-77
2023/11/26 09:39:52;;;;;;;16.98;7.22;;;5.90;99.90;;;;;;5067230;28;20039;-77
2023/11/26 09:42:22;;;;;;;18.13;7.70;;;5.90;99.90;;;;;;5096190;28;20496;-78
2023/11/26 09:44:49;;;;;;;16.35;5.65;;;5.90;99.90;;;;;;5091733;28;20502;-76
2023/11/26 09:47:16;;;;;;;15.02;6.25;;;6.00;99.90;;;;;;5070792;28;20035;-76
2023/11/26 09:49:42;;;;;;;19.05;6.03;;;6.00;99.90;;;;;;5093517;28;20055;-75
2023/11/26 09:52:09;;;;;;;14.63;7.03;;;6.10;99.90;;;;;;5078530;28;20044;-75
2023/11/26 09:54:36;;;;;;;15.95;6.95;;;6.20;99.90;;;;;;5082746;28;20036;-77
2023/11/26 09:57:03;;;;;;;11.45;5.85;;;6.20;99.90;;;;;;5060582;28;20617;-77
2023/11/26 09:59:34;;;;;;;16.77;7.10;;;6.30;99.90;;;;;;5062223;28;20051;-76
2023/11/26 10:02:02;;;;;;;20.45;9.15;;;6.30;99.90;;;;;;5104540;28;20414;-77
2023/11/26 10:04:49;;;;;;;17.38;7.78;;;6.40;99.90;;;;;;5099247;28;20024;-77
2023/11/26 10:07:16;;;;;;;17.67;7.38;;;6.50;99.90;;;;;;5099356;27;20039;-77
2023/11/26 10:10:00;;;;;;;16.58;6.55;;;6.50;99.90;;;;;;5069429;28;20042;-77
2023/11/26 10:12:26;;;;;;;15.32;5.70;;;6.50;99.90;;;;;;5066729;28;20035;-75
2023/11/26 10:15:06;;;;;;;13.15;6.88;;;6.50;99.90;;;;;;5070864;27;20036;-78
2023/11/26 10:17:34;;;;;;;16.48;5.57;;;6.50;99.90;;;;;;5062747;28;20043;-77
2023/11/26 10:20:17;;;;;;;16.75;6.55;;;6.50;99.90;;;;;;5054221;27;20031;-76
2023/11/26 10:22:45;;;;;;;15.52;5.93;;;6.60;99.90;;;;;;5095800;27;20063;-79
2023/11/26 10:25:12;;;;;;;13.15;5.30;;;6.70;99.90;;;;;;5048506;28;20607;-78
2023/11/26 10:27:38;;;;;;;14.52;5.95;;;6.70;99.90;;;;;;5064960;28;20047;-78
2023/11/26 10:30:07;;;;;;;9.75;4.65;;;6.70;99.90;;;;;;5063420;28;20560;-77
2023/11/26 10:32:33;;;;;;;12.65;5.57;;;6.80;99.90;;;;;;5077574;28;20387;-76
2023/11/26 10:35:03;;;;;;;8.80;4.68;;;6.80;99.90;;;;;;5078650;27;20035;-78
2023/11/26 10:37:30;;;;;;;12.50;5.00;;;6.90;99.90;;;;;;5096025;27;20044;-77
2023/11/26 10:39:56;;;;;;;8.45;3.58;;;6.90;99.90;;;;;;5048094;27;20044;-77
2023/11/26 10:42:25;;;;;;;14.32;6.53;;;7.00;99.90;;;;;;5079031;27;20066;-77
2023/11/26 10:44:52;;;;;;;17.13;7.93;;;7.00;99.90;;;;;;5063461;27;20036;-75
2023/11/26 10:47:23;;;;;;;13.07;6.45;;;7.00;99.90;;;;;;5084707;27;20042;-76
2023/11/26 10:49:52;;;;;;;16.23;8.45;;;7.10;99.90;;;;;;5047665;27;20052;-76
2023/11/26 10:52:45;;;;;;;15.95;7.60;;;7.10;99.90;;;;;;5096848;27;20048;-76
2023/11/26 10:55:29;;;;;;;19.60;8.70;;;7.10;99.90;;;;;;5084596;27;20043;-78
2023/11/26 10:58:05;;;;;;;17.65;9.07;;;7.10;99.90;;;;;;5079434;27;20102;-78
2023/11/26 11:00:34;;;;;;;12.27;6.53;;;7.10;99.90;;;;;;5098966;27;20028;-77
2023/11/26 11:03:03;;;;;;;16.60;7.85;;;7.10;99.90;;;;;;5080455;27;20032;-77
2023/11/26 11:05:30;;;;;;;13.73;7.03;;;7.00;99.90;;;;;;5099766;27;20397;-78
2023/11/26 11:07:59;;;;;;;13.95;7.55;;;7.10;99.90;;;;;;5066514;27;20028;-75
2023/11/26 11:10:49;;;;;;;19.55;7.90;;;7.10;99.90;;;;;;5052940;27;20481;-77
2023/11/26 11:13:18;;;;;;;17.40;7.95;;;7.10;99.90;;;;;;5086540;27;20106;-77
2023/11/26 11:15:45;;;;;;;17.02;8.13;;;7.10;99.90;;;;;;5087360;27;20035;-77
2023/11/26 11:18:41;;;;;;;17.35;8.15;;;7.10;99.90;;;;;;5050451;27;20036;-77
2023/11/26 11:21:12;;;;;;;14.68;7.40;;;7.10;99.90;;;;;;5085371;27;20043;-77
2023/11/26 11:23:44;;;;;;;15.93;7.85;;;7.20;99.90;;;;;;5076156;27;20046;-84
2023/11/26 11:26:15;;;;;;;17.55;8.00;;;7.20;99.90;;;;;;5075823;27;20043;-77
2023/11/26 11:28:42;;;;;;;21.95;9.25;;;7.20;99.90;;;;;;5062394;28;20032;-75
2023/11/26 11:31:10;;;;;;;19.10;10.93;;;7.30;99.90;;;;;;5077492;28;20055;-76
2023/11/26 11:34:05;;;;;;;21.52;9.80;;;7.30;99.90;;;;;;5077724;28;20357;-77
2023/11/26 11:36:49;;;;;;;20.63;9.55;;;7.40;99.90;;;;;;5075268;28;20481;-76
2023/11/26 11:39:27;;;;;;;15.10;9.82;;;7.40;99.90;;;;;;5094497;27;20565;-75
2023/11/26 11:41:56;;;;;;;20.05;9.23;;;7.50;99.90;;;;;;5100095;27;20052;-76
2023/11/26 11:44:37;;;;;;;21.15;10.77;;;7.60;99.90;;;;;;5071866;28;20517;-77
2023/11/26 11:47:08;;;;;;;19.98;9.18;;;7.70;99.90;;;;;;5099540;27;20034;-75
2023/11/26 11:49:49;;;;;;;16.55;8.70;;;7.80;99.90;;;;;;5061688;28;20040;-76
2023/11/26 11:52:17;;;;;;;17.23;7.47;;;7.80;99.90;;;;;;5094753;27;20051;-77
2023/11/26 11:54:55;;;;;;;24.23;9.93;;;7.90;99.90;;;;;;5099062;27;20032;-78
2023/11/26 11:57:27;;;;;;;22.58;10.15;;;7.90;99.90;;;;;;5083344;28;20520;-79
2023/11/26 11:59:55;;;;;;;20.67;10.10;;;7.90;99.90;;;;;;5081158;27;20032;-77
2023/11/26 12:02:23;;;;;;;20.98;9.63;;;7.90;99.90;;;;;;5080571;28;20047;-77
2023/11/26 12:04:50;;;;;;;16.75;9.10;;;7.90;99.90;;;;;;5069422;28;20039;-79
2023/11/26 12:07:19;;;;;;;16.20;7.25;;;8.00;99.90;;;;;;5065916;27;20036;-76
2023/11/26 12:09:46;;;;;;;15.10;7.35;;;8.10;99.90;;;;;;5100369;27;20055;-77
2023/11/26 12:12:19;;;;;;;21.60;9.82;;;8.10;99.90;;;;;;5100568;27;20035;-78
2023/11/26 12:14:46;;;;;;;16.38;7.28;;;8.00;99.90;;;;;;5087897;28;20035;-79
2023/11/26 12:17:13;;;;;;;14.45;7.82;;;8.00;99.90;;;;;;5101822;27;20494;-77
2023/11/26 12:19:41;;;;;;;13.32;6.78;;;8.00;99.90;;;;;;5079556;28;20051;-77
2023/11/26 12:22:09;;;;;;;11.98;5.82;;;8.10;99.90;;;;;;5099068;27;20389;-79
2023/11/26 12:24:37;;;;;;;11.98;6.13;;;8.10;99.90;;;;;;5068746;28;20050;-77
2023/11/26 12:27:04;;;;;;;18.67;7.45;;;8.10;99.90;;;;;;5068297;28;20031;-77
2023/11/26 12:29:32;;;;;;;14.95;5.82;;;8.10;99.90;;;;;;5077512;28;20399;-79
2023/11/26 12:32:06;;;;;;;14.27;6.25;;;8.20;99.90;;;;;;5079279;27;20044;-78
2023/11/26 12:34:37;;;;;;;19.02;7.13;;;8.20;99.90;;;;;;5064452;27;20043;-77
2023/11/26 12:37:05;;;;;;;14.15;6.15;;;8.10;99.90;;;;;;5066067;28;20028;-77
2023/11/26 12:39:34;;;;;;;13.13;6.57;;;8.10;99.90;;;;;;5078673;28;20050;-79
2023/11/26 12:42:00;;;;;;;13.75;5.07;;;8.10;99.90;;;;;;5112180;27;20032;-75
2023/11/26 12:44:26;;;;;;;12.85;7.28;;;8.10;99.90;;;;;;5076033;28;20399;-77
2023/11/26 12:47:10;;;;;;;16.50;7.35;;;8.00;99.90;;;;;;5045833;27;20040;-75
2023/11/26 12:49:37;;;;;;;14.63;6.40;;;7.90;99.90;;;;;;5077687;28;20047;-75
2023/11/26 12:52:05;;;;;;;13.32;6.13;;;7.90;99.90;;;;;;5075706;28;20040;-75
2023/11/26 12:54:31;;;;;;;15.65;6.53;;;7.90;99.90;;;;;;5065617;28;20057;-75